createdAt,value
2019-01-28T00:01:53.020Z,41.50
2019-01-28T00:04:22.805Z,42.27
2019-01-28T00:06:52.789Z,42.40
2019-01-28T00:09:22.605Z,41.73
2019-01-28T00:11:52.407Z,42.50
2019-01-28T00:14:22.309Z,40.67
2019-01-28T00:16:52.165Z,43.40
2019-01-28T00:19:22.199Z,44.87
2019-01-28T00:21:51.979Z,42.80
2019-01-28T00:24:21.861Z,42.23
2019-01-28T00:26:52.725Z,41.63
2019-01-28T00:29:22.528Z,43.20
2019-01-28T00:31:52.379Z,44.03
2019-01-28T00:34:22.309Z,44.27
2019-01-28T00:36:52.111Z,41.20
2019-01-28T00:39:21.905Z,44.23
2019-01-28T00:41:51.883Z,40.07
2019-01-28T00:44:21.701Z,41.63
2019-01-28T00:46:51.558Z,42.13
2019-01-28T00:49:23.076Z,43.50
2019-01-28T00:51:52.979Z,41.23
2019-01-28T00:54:22.801Z,40.97
2019-01-28T00:56:52.589Z,38.90
2019-01-28T00:59:22.533Z,43.13
2019-01-28T01:01:52.493Z,43.73
2019-01-28T01:04:22.435Z,41.67
2019-01-28T01:06:52.427Z,42.00
2019-01-28T01:09:22.403Z,42.90
2019-01-28T01:11:52.270Z,42.63
2019-01-28T01:14:22.093Z,43.23
2019-01-28T01:16:52.034Z,44.17
2019-01-28T01:19:21.865Z,41.87
2019-01-28T01:21:51.778Z,43.17
2019-01-28T01:24:21.717Z,41.93
2019-01-28T01:26:51.593Z,42.17
2019-01-28T01:29:21.514Z,41.30
2019-01-28T01:31:51.430Z,40.63
2019-01-28T01:34:21.223Z,41.13
2019-01-28T01:36:51.105Z,41.60
2019-01-28T01:39:21.075Z,42.40
2019-01-28T01:41:50.948Z,41.30
2019-01-28T01:44:20.852Z,41.13
2019-01-28T01:46:50.751Z,41.37
2019-01-28T01:49:20.638Z,41.23
2019-01-28T01:51:52.095Z,42.37
2019-01-28T01:54:22.006Z,40.73
2019-01-28T01:56:51.868Z,39.57
2019-01-28T01:59:21.693Z,38.57
2019-01-28T02:01:51.618Z,40.70
2019-01-28T02:04:21.437Z,41.13
2019-01-28T02:06:51.359Z,41.33
2019-01-28T02:09:21.247Z,42.47
2019-01-28T02:11:51.054Z,41.63
2019-01-28T02:14:20.901Z,41.60
2019-01-28T02:16:50.836Z,41.70
2019-01-28T02:19:20.629Z,41.23
2019-01-28T02:21:50.583Z,40.37
2019-01-28T02:24:20.489Z,40.97
2019-01-28T02:26:50.448Z,39.97
2019-01-28T02:29:20.253Z,38.30
2019-01-28T02:31:50.175Z,40.10
2019-01-28T02:34:20.178Z,40.40
2019-01-28T02:36:50.038Z,37.80
2019-01-28T02:39:19.906Z,40.27
2019-01-28T02:41:49.756Z,40.90
2019-01-28T02:44:19.571Z,38.80
2019-01-28T02:46:49.580Z,40.73
2019-01-28T02:49:19.447Z,41.43
2019-01-28T02:51:49.305Z,41.03
2019-01-28T02:54:19.398Z,40.40
2019-01-28T02:56:49.275Z,40.73
2019-01-28T02:59:19.204Z,41.67
2019-01-28T03:01:49.151Z,40.87
2019-01-28T03:04:18.952Z,40.20
2019-01-28T03:06:48.846Z,41.63
2019-01-28T03:09:18.975Z,39.43
2019-01-28T03:11:48.885Z,40.63
2019-01-28T03:14:18.760Z,37.50
2019-01-28T03:16:48.649Z,37.20
2019-01-28T03:19:18.486Z,37.33
2019-01-28T03:21:48.354Z,38.13
2019-01-28T03:24:18.239Z,36.50
2019-01-28T03:26:48.062Z,37.37
2019-01-28T03:29:17.913Z,37.73
2019-01-28T03:31:48.231Z,35.07
2019-01-28T03:34:18.043Z,37.90
2019-01-28T03:36:47.842Z,36.40
2019-01-28T03:39:17.754Z,37.97
2019-01-28T03:41:47.586Z,37.80
2019-01-28T03:44:17.493Z,36.30
2019-01-28T03:46:47.378Z,38.23
2019-01-28T03:49:17.209Z,36.33
2019-01-28T03:51:47.694Z,37.00
2019-01-28T03:54:17.701Z,38.23
2019-01-28T03:56:47.838Z,36.77
2019-01-28T03:59:17.785Z,38.10
2019-01-28T04:01:47.634Z,37.17
2019-01-28T04:04:17.466Z,36.20
2019-01-28T04:06:47.405Z,36.17
2019-01-28T04:09:17.353Z,36.17
2019-01-28T04:11:47.265Z,36.40
2019-01-28T04:14:17.151Z,37.57
2019-01-28T04:16:46.982Z,34.47
2019-01-28T04:19:16.776Z,36.57
2019-01-28T04:21:46.659Z,35.63
2019-01-28T04:24:16.493Z,35.47
2019-01-28T04:26:46.286Z,36.27
2019-01-28T04:29:16.238Z,36.67
2019-01-28T04:31:46.092Z,35.63
2019-01-28T04:34:15.913Z,35.00
2019-01-28T04:36:45.847Z,34.97
2019-01-28T04:39:15.641Z,34.87
2019-01-28T04:41:45.466Z,35.60
2019-01-28T04:44:15.346Z,35.13
2019-01-28T04:46:45.223Z,35.40
2019-01-28T04:49:15.089Z,33.73
2019-01-28T04:51:45.052Z,34.20
2019-01-28T04:54:14.979Z,34.33
2019-01-28T04:56:44.878Z,34.17
2019-01-28T04:59:14.734Z,32.80
2019-01-28T05:01:44.710Z,34.50
2019-01-28T05:04:14.484Z,33.30
2019-01-28T05:06:44.400Z,33.73
2019-01-28T05:09:14.238Z,33.07
2019-01-28T05:11:44.030Z,34.13
2019-01-28T05:14:13.937Z,33.37
2019-01-28T05:16:43.779Z,31.33
2019-01-28T05:19:13.672Z,33.47
2019-01-28T05:21:43.567Z,33.70
2019-01-28T05:24:13.392Z,32.53
2019-01-28T05:26:43.316Z,30.33
2019-01-28T05:29:13.145Z,29.37
2019-01-28T05:31:43.038Z,30.63
2019-01-28T05:34:12.953Z,30.40
2019-01-28T05:36:42.768Z,29.63
2019-01-28T05:39:12.789Z,27.77
2019-01-28T05:41:42.731Z,29.77
2019-01-28T05:44:12.559Z,27.93
2019-01-28T05:46:42.391Z,28.83
2019-01-28T05:49:12.419Z,28.13
2019-01-28T05:51:42.230Z,27.77
2019-01-28T05:54:12.044Z,26.40
2019-01-28T05:56:41.927Z,25.83
2019-01-28T05:59:11.800Z,25.63
2019-01-28T06:01:41.645Z,25.90
2019-01-28T06:04:11.767Z,26.50
2019-01-28T06:06:41.679Z,24.47
2019-01-28T06:09:11.730Z,25.00
2019-01-28T06:11:42.684Z,24.80
2019-01-28T06:14:12.588Z,24.40
2019-01-28T06:16:42.409Z,23.43
2019-01-28T06:19:12.253Z,24.77
2019-01-28T06:21:42.185Z,22.57
2019-01-28T06:24:12.048Z,23.27
2019-01-28T06:26:41.871Z,22.03
2019-01-28T06:29:11.725Z,24.20
2019-01-28T06:31:41.544Z,22.50
2019-01-28T06:34:11.549Z,22.43
2019-01-28T06:36:41.385Z,21.90
2019-01-28T06:39:11.962Z,22.30
2019-01-28T06:41:41.880Z,22.17
2019-01-28T06:44:11.704Z,23.27
2019-01-28T06:46:41.515Z,23.17
2019-01-28T06:49:11.403Z,21.47
2019-01-28T06:51:41.245Z,23.23
2019-01-28T06:54:11.076Z,23.13
2019-01-28T06:56:41.006Z,21.43
2019-01-28T06:59:10.836Z,21.77
2019-01-28T07:01:40.636Z,23.03
2019-01-28T07:04:10.549Z,23.33
2019-01-28T07:06:40.406Z,24.30
2019-01-28T07:09:10.857Z,24.97
2019-01-28T07:11:40.866Z,24.97
2019-01-28T07:14:10.672Z,24.60
2019-01-28T07:16:40.600Z,25.63
2019-01-28T07:19:10.542Z,28.00
2019-01-28T07:21:40.391Z,27.40
2019-01-28T07:24:10.384Z,26.30
2019-01-28T07:26:40.333Z,26.83
2019-01-28T07:29:10.171Z,28.47
2019-01-28T07:31:40.078Z,26.87
2019-01-28T07:34:10.085Z,28.03
2019-01-28T07:36:39.937Z,28.00
2019-01-28T07:39:09.881Z,29.47
2019-01-28T07:41:39.720Z,29.53
2019-01-28T07:44:09.542Z,32.67
2019-01-28T07:46:39.448Z,33.97
2019-01-28T07:49:09.248Z,39.83
2019-01-28T07:51:39.124Z,42.53
2019-01-28T07:54:09.054Z,42.23
2019-01-28T07:56:38.913Z,43.90
2019-01-28T07:59:08.802Z,49.23
2019-01-28T08:01:38.684Z,52.73
2019-01-28T08:04:08.720Z,51.53
2019-01-28T08:06:38.618Z,53.83
2019-01-28T08:09:09.721Z,59.37
2019-01-28T08:11:39.596Z,60.10
2019-01-28T08:14:09.766Z,60.67
2019-01-28T08:16:39.633Z,61.27
2019-01-28T08:19:10.606Z,57.87
2019-01-28T08:21:40.425Z,57.93
2019-01-28T08:24:10.345Z,57.63
2019-01-28T08:26:40.329Z,56.07
2019-01-28T08:29:10.430Z,55.97
2019-01-28T08:31:40.250Z,56.13
2019-01-28T08:34:10.181Z,55.73
2019-01-28T08:36:40.065Z,53.83
2019-01-28T08:39:10.625Z,54.50
2019-01-28T08:41:40.465Z,52.97
2019-01-28T08:44:10.277Z,50.30
2019-01-28T08:46:40.357Z,50.27
2019-01-28T08:49:10.295Z,48.80
2019-01-28T08:51:40.214Z,47.93
2019-01-28T08:54:10.154Z,47.90
2019-01-28T08:56:40.066Z,47.53
2019-01-28T08:59:09.965Z,45.13
2019-01-28T09:01:39.959Z,48.53
2019-01-28T09:04:09.878Z,48.53
2019-01-28T09:06:39.660Z,48.40
2019-01-28T09:09:11.442Z,44.87
2019-01-28T09:11:41.514Z,47.87
2019-01-28T09:14:11.325Z,47.40
2019-01-28T09:16:41.298Z,48.70
2019-01-28T09:19:11.162Z,46.47
2019-01-28T09:21:41.143Z,46.63
2019-01-28T09:24:11.049Z,45.87
2019-01-28T09:26:41.001Z,44.70
2019-01-28T09:29:11.453Z,44.07
2019-01-28T09:31:41.366Z,45.53
2019-01-28T09:34:11.212Z,43.07
2019-01-28T09:36:41.115Z,43.87
2019-01-28T09:39:11.469Z,42.93
2019-01-28T09:41:41.351Z,41.23
2019-01-28T09:44:11.201Z,41.70
2019-01-28T09:46:41.150Z,43.27
2019-01-28T09:49:11.017Z,39.60
2019-01-28T09:51:41.030Z,42.47
2019-01-28T09:54:11.352Z,41.90
2019-01-28T09:56:41.261Z,41.07
2019-01-28T09:59:11.339Z,40.00
2019-01-28T10:01:41.370Z,39.27
2019-01-28T10:04:11.294Z,40.10
2019-01-28T10:06:41.351Z,38.07
2019-01-28T10:09:11.882Z,38.30
2019-01-28T10:11:41.835Z,37.40
2019-01-28T10:14:12.008Z,38.07
2019-01-28T10:16:42.048Z,37.00
2019-01-28T10:19:12.009Z,35.13
2019-01-28T10:21:41.961Z,35.90
2019-01-28T10:24:11.998Z,34.83
2019-01-28T10:26:42.035Z,35.30
2019-01-28T10:29:11.880Z,34.70
2019-01-28T10:31:41.956Z,34.17
2019-01-28T10:34:11.939Z,34.83
2019-01-28T10:36:41.777Z,32.20
2019-01-28T10:39:12.692Z,32.77
2019-01-28T10:41:42.585Z,31.70
2019-01-28T10:44:12.384Z,31.10
2019-01-28T10:46:42.273Z,31.90
2019-01-28T10:49:12.152Z,31.17
2019-01-28T10:51:41.985Z,28.80
2019-01-28T10:54:11.986Z,29.20
2019-01-28T10:56:41.898Z,28.27
2019-01-28T10:59:11.892Z,27.20
2019-01-28T11:01:41.745Z,27.43
2019-01-28T11:04:11.790Z,29.17
2019-01-28T11:06:41.621Z,26.87
2019-01-28T11:09:11.544Z,27.33
2019-01-28T11:11:42.515Z,25.83
2019-01-28T11:14:12.703Z,26.23
2019-01-28T11:16:42.659Z,26.60
2019-01-28T11:19:12.644Z,26.80
2019-01-28T11:21:42.543Z,26.07
2019-01-28T11:24:12.578Z,24.47
2019-01-28T11:26:42.666Z,24.70
2019-01-28T11:29:12.512Z,25.30
2019-01-28T11:31:42.413Z,26.17
2019-01-28T11:34:12.345Z,25.70
2019-01-28T11:36:42.264Z,27.40
2019-01-28T11:39:12.819Z,27.73
2019-01-28T11:41:42.748Z,27.13
2019-01-28T11:44:12.744Z,28.70
2019-01-28T11:46:42.747Z,28.97
2019-01-28T11:49:12.888Z,30.23
2019-01-28T11:51:42.713Z,28.73
2019-01-28T11:54:12.573Z,29.43
2019-01-28T11:56:42.496Z,28.83
2019-01-28T11:59:12.332Z,29.53
2019-01-28T12:01:42.171Z,28.03
2019-01-28T12:04:12.033Z,28.93
2019-01-28T12:06:43.165Z,29.50
2019-01-28T12:09:12.984Z,29.40
2019-01-28T12:11:42.832Z,28.70
2019-01-28T12:14:12.705Z,31.03
2019-01-28T12:16:42.577Z,29.37
2019-01-28T12:19:14.402Z,31.03
2019-01-28T12:21:43.885Z,30.93
2019-01-28T12:24:13.800Z,30.23
2019-01-28T12:26:43.608Z,33.27
2019-01-28T12:29:13.472Z,31.73
2019-01-28T12:31:43.407Z,34.13
2019-01-28T12:34:13.305Z,33.00
2019-01-28T12:36:43.233Z,35.67
2019-01-28T12:39:13.045Z,35.23
2019-01-28T12:41:42.855Z,35.23
2019-01-28T12:44:12.825Z,35.30
2019-01-28T12:46:42.629Z,35.20
2019-01-28T12:49:12.438Z,35.93
2019-01-28T12:51:42.372Z,34.50
2019-01-28T12:54:12.201Z,34.90
2019-01-28T12:56:42.063Z,35.37
2019-01-28T12:59:12.004Z,36.20
2019-01-28T13:01:41.986Z,35.70
2019-01-28T13:04:11.948Z,33.77
2019-01-28T13:06:41.757Z,34.53
2019-01-28T13:09:11.575Z,34.20
2019-01-28T13:11:41.474Z,31.63
2019-01-28T13:14:11.271Z,31.33
2019-01-28T13:16:41.066Z,31.57
2019-01-28T13:19:10.992Z,32.17
2019-01-28T13:21:40.785Z,29.73
2019-01-28T13:24:10.584Z,31.80
2019-01-28T13:26:40.456Z,31.33
2019-01-28T13:29:10.283Z,34.37
2019-01-28T13:31:40.627Z,35.13
2019-01-28T13:34:10.412Z,35.07
2019-01-28T13:36:40.223Z,35.20
2019-01-28T13:39:10.249Z,36.27
2019-01-28T13:41:40.073Z,33.13
2019-01-28T13:44:09.896Z,34.20
2019-01-28T13:46:39.899Z,32.73
2019-01-28T13:49:09.753Z,33.73
2019-01-28T13:51:39.965Z,31.47
2019-01-28T13:54:09.991Z,31.33
2019-01-28T13:56:39.874Z,30.97
2019-01-28T13:59:16.236Z,28.57
2019-01-28T14:01:41.713Z,29.37
2019-01-28T14:04:11.597Z,29.30
2019-01-28T14:06:41.438Z,29.27
2019-01-28T14:09:11.467Z,29.30
2019-01-28T14:11:41.386Z,27.53
2019-01-28T14:14:11.297Z,27.97
2019-01-28T14:16:41.116Z,27.93
2019-01-28T14:19:11.037Z,27.60
2019-01-28T14:21:40.849Z,25.73
2019-01-28T14:24:10.785Z,26.30
2019-01-28T14:26:40.718Z,24.63
2019-01-28T14:29:10.497Z,24.13
2019-01-28T14:31:40.360Z,21.83
2019-01-28T14:34:10.272Z,21.43
2019-01-28T14:36:40.425Z,20.63
2019-01-28T14:39:13.654Z,20.07
2019-01-28T14:41:43.710Z,18.93
2019-01-28T14:44:13.625Z,19.27
2019-01-28T14:46:43.450Z,18.43
2019-01-28T14:49:13.376Z,18.87
2019-01-28T14:51:43.261Z,18.27
2019-01-28T14:54:13.209Z,17.60
2019-01-28T14:56:43.251Z,16.77
2019-01-28T14:59:13.097Z,18.27
2019-01-28T15:01:43.093Z,16.70
2019-01-28T15:04:13.195Z,16.93
2019-01-28T15:06:43.060Z,19.00
2019-01-28T15:09:13.407Z,18.77
2019-01-28T15:11:43.466Z,21.13
2019-01-28T15:14:13.306Z,21.67
2019-01-28T15:16:43.194Z,22.10
2019-01-28T15:19:13.090Z,23.03
2019-01-28T15:21:42.885Z,23.10
2019-01-28T15:24:12.784Z,24.83
2019-01-28T15:26:42.625Z,24.33
2019-01-28T15:29:12.418Z,24.33
2019-01-28T15:31:42.277Z,25.27
2019-01-28T15:34:12.323Z,24.23
2019-01-28T15:36:42.216Z,24.13
2019-01-28T15:39:12.264Z,24.63
2019-01-28T15:41:42.076Z,24.37
2019-01-28T15:44:12.108Z,25.67
2019-01-28T15:46:41.933Z,24.67
2019-01-28T15:49:11.883Z,23.43
2019-01-28T15:51:41.777Z,23.47
2019-01-28T15:54:11.592Z,22.87
2019-01-28T15:56:41.427Z,22.07
2019-01-28T15:59:11.236Z,21.90
2019-01-28T16:01:41.122Z,21.83
2019-01-28T16:04:11.013Z,20.33
2019-01-28T16:06:40.949Z,19.77
2019-01-28T16:09:11.130Z,20.00
2019-01-28T16:11:40.965Z,19.97
2019-01-28T16:14:10.833Z,18.23
2019-01-28T16:16:40.773Z,17.30
2019-01-28T16:19:10.892Z,17.00
2019-01-28T16:21:41.039Z,17.63
2019-01-28T16:24:11.009Z,16.97
2019-01-28T16:26:40.894Z,17.13
2019-01-28T16:29:10.708Z,15.67
2019-01-28T16:31:40.671Z,15.97
2019-01-28T16:34:10.578Z,15.63
2019-01-28T16:36:40.573Z,14.97
2019-01-28T16:39:11.060Z,15.37
2019-01-28T16:41:41.004Z,17.77
2019-01-28T16:44:10.979Z,20.80
2019-01-28T16:46:40.869Z,27.37
2019-01-28T16:49:10.946Z,28.30
2019-01-28T16:51:40.861Z,29.27
2019-01-28T16:54:10.741Z,31.57
2019-01-28T16:56:40.793Z,31.10
2019-01-28T16:59:10.667Z,30.10
2019-01-28T17:01:40.523Z,30.77
2019-01-28T17:04:12.191Z,28.73
2019-01-28T17:06:42.215Z,26.77
2019-01-28T17:09:12.138Z,25.33
2019-01-28T17:11:42.077Z,23.93
2019-01-28T17:14:11.903Z,22.07
2019-01-28T17:16:41.735Z,20.53
2019-01-28T17:19:11.586Z,19.20
2019-01-28T17:21:41.419Z,18.83
2019-01-28T17:24:11.343Z,18.00
2019-01-28T17:26:41.190Z,18.67
2019-01-28T17:29:11.066Z,21.90
2019-01-28T17:31:40.970Z,25.13
2019-01-28T17:34:10.812Z,26.97
2019-01-28T17:36:40.746Z,30.07
2019-01-28T17:39:10.583Z,30.17
2019-01-28T17:41:40.419Z,29.47
2019-01-28T17:44:10.412Z,28.43
2019-01-28T17:46:40.296Z,27.60
2019-01-28T17:49:10.143Z,27.67
2019-01-28T17:51:40.153Z,24.80
2019-01-28T17:54:10.057Z,23.83
2019-01-28T17:56:39.881Z,22.20
2019-01-28T17:59:09.843Z,21.13
2019-01-28T18:01:39.708Z,20.87
2019-01-28T18:04:09.574Z,20.03
2019-01-28T18:06:39.384Z,19.23
2019-01-28T18:09:10.336Z,19.47
2019-01-28T18:11:40.245Z,16.70
2019-01-28T18:14:10.254Z,16.27
2019-01-28T18:16:40.191Z,16.50
2019-01-28T18:19:10.124Z,16.10
2019-01-28T18:21:40.144Z,14.53
2019-01-28T18:24:10.097Z,14.07
2019-01-28T18:26:40.212Z,12.97
2019-01-28T18:29:10.046Z,13.40
2019-01-28T18:31:40.010Z,13.20
2019-01-28T18:34:09.830Z,12.83
2019-01-28T18:36:39.698Z,12.00
2019-01-28T18:39:12.123Z,11.40
2019-01-28T18:41:42.016Z,12.97
2019-01-28T18:44:11.809Z,11.03
2019-01-28T18:46:41.797Z,10.97
2019-01-28T18:49:11.738Z,11.70
2019-01-28T18:51:41.574Z,10.33
2019-01-28T18:54:11.440Z,10.60
2019-01-28T18:56:41.501Z,11.63
2019-01-28T18:59:11.505Z,12.57
2019-01-28T19:01:41.335Z,11.97
2019-01-28T19:04:11.275Z,11.23
2019-01-28T19:07:08.881Z,11.67
2019-01-28T19:10:04.607Z,11.07
2019-01-28T19:12:44.770Z,11.20
2019-01-28T19:15:24.758Z,11.13
2019-01-28T19:18:04.244Z,13.07
2019-01-28T19:20:45.630Z,13.53
2019-01-28T19:23:15.650Z,13.33
2019-01-28T19:25:45.469Z,12.73
2019-01-28T19:28:15.370Z,12.80
2019-01-28T19:30:45.423Z,12.97
2019-01-28T19:33:15.386Z,13.43
2019-01-28T19:35:45.265Z,13.27
2019-01-28T19:38:15.418Z,14.77
2019-01-28T19:40:45.365Z,14.93
2019-01-28T19:43:15.346Z,14.37
2019-01-28T19:45:45.182Z,15.50
2019-01-28T19:48:15.036Z,15.57
2019-01-28T19:50:45.379Z,16.20
2019-01-28T19:53:15.224Z,16.93
2019-01-28T19:55:45.034Z,15.90
2019-01-28T19:58:14.939Z,15.77
2019-01-28T20:00:44.849Z,15.30
2019-01-28T20:03:16.068Z,16.20
2019-01-28T20:05:45.985Z,15.43
2019-01-28T20:08:15.886Z,15.30
2019-01-28T20:10:45.859Z,14.50
2019-01-28T20:13:15.705Z,16.07
2019-01-28T20:15:45.628Z,21.70
2019-01-28T20:18:15.718Z,28.27
2019-01-28T20:20:45.547Z,31.23
2019-01-28T20:23:15.452Z,33.03
2019-01-28T20:25:45.681Z,33.70
2019-01-28T20:28:15.573Z,31.20
2019-01-28T20:30:45.485Z,30.57
2019-01-28T20:33:15.934Z,29.93
2019-01-28T20:35:46.484Z,28.23
2019-01-28T20:38:16.774Z,24.97
2019-01-28T20:40:47.013Z,25.47
2019-01-28T20:43:23.928Z,23.47
2019-01-28T20:45:49.647Z,22.47
2019-01-28T20:48:20.411Z,20.30
2019-01-28T20:50:50.998Z,21.43
2019-01-28T20:53:21.568Z,20.40
2019-01-28T20:55:52.186Z,18.77
2019-01-28T20:58:22.985Z,18.40
2019-01-28T21:00:53.891Z,17.50
2019-01-28T21:03:24.864Z,16.73
2019-01-28T21:05:55.660Z,16.07
2019-01-28T21:08:26.062Z,16.13
2019-01-28T21:10:56.521Z,15.23
2019-01-28T21:13:26.741Z,15.13
2019-01-28T21:15:57.181Z,14.67
2019-01-28T21:18:27.817Z,14.07
2019-01-28T21:20:57.948Z,13.67
2019-01-28T21:23:28.045Z,13.17
2019-01-28T21:25:57.943Z,13.97
2019-01-28T21:28:27.986Z,12.30
2019-01-28T21:30:57.865Z,12.93
2019-01-28T21:33:27.746Z,11.77
2019-01-28T21:36:22.822Z,11.80
2019-01-28T21:38:53.780Z,11.87
2019-01-28T21:41:23.708Z,15.93
2019-01-28T21:43:53.661Z,22.83
2019-01-28T21:46:23.562Z,27.33
2019-01-28T21:48:53.495Z,32.20
2019-01-28T21:51:23.557Z,30.20
2019-01-28T21:53:53.412Z,28.70
2019-01-28T21:56:23.219Z,28.73
2019-01-28T21:58:53.113Z,28.33
2019-01-28T22:01:23.029Z,26.30
2019-01-28T22:03:53.010Z,24.47
2019-01-28T22:06:22.881Z,24.07
2019-01-28T22:08:52.741Z,22.67
2019-01-28T22:11:22.663Z,21.57
2019-01-28T22:13:52.483Z,20.40
2019-01-28T22:16:22.296Z,19.20
2019-01-28T22:18:52.371Z,19.03
2019-01-28T22:21:22.199Z,18.87
2019-01-28T22:23:52.101Z,18.70
2019-01-28T22:26:21.909Z,17.10
2019-01-28T22:28:51.693Z,18.17
2019-01-28T22:31:21.763Z,16.07
2019-01-28T22:33:51.557Z,16.20
2019-01-28T22:36:21.419Z,15.20
2019-01-28T22:38:51.373Z,16.07
2019-01-28T22:41:21.230Z,15.10
2019-01-28T22:43:51.200Z,15.00
2019-01-28T22:46:21.773Z,16.57
2019-01-28T22:48:51.773Z,14.97
2019-01-28T22:51:21.593Z,14.63
2019-01-28T22:53:51.498Z,14.50
2019-01-28T22:56:21.413Z,14.57
2019-01-28T22:58:51.273Z,15.57
2019-01-28T23:01:33.521Z,14.43
2019-01-28T23:04:03.397Z,14.30
2019-01-28T23:06:33.349Z,14.70
2019-01-28T23:09:04.887Z,14.43
2019-01-28T23:11:34.704Z,13.93
2019-01-28T23:14:05.117Z,13.93
2019-01-28T23:16:35.053Z,14.00
2019-01-28T23:19:04.991Z,14.23
2019-01-28T23:21:35.026Z,13.20
2019-01-28T23:24:05.229Z,13.50
2019-01-28T23:26:35.050Z,12.80
2019-01-28T23:29:05.244Z,13.17
2019-01-28T23:31:35.068Z,12.73
2019-01-28T23:34:05.261Z,12.90
2019-01-28T23:36:35.151Z,12.67
2019-01-28T23:39:06.853Z,13.57
2019-01-28T23:41:36.719Z,12.47
2019-01-28T23:44:06.695Z,12.37
2019-01-28T23:46:36.515Z,12.47
2019-01-28T23:49:06.349Z,12.53
2019-01-28T23:51:36.249Z,12.20
2019-01-28T23:54:06.514Z,11.80
2019-01-28T23:56:57.750Z,13.10
2019-01-28T23:59:27.605Z,12.17
